AirNav   Duncan Aviation - Near you to keep you flying
 
 507 users online  

NE69 Browns Airport
Weeping Water, Nebraska, USA

GOING TO WEEPING WATER?


FAA INFORMATION EFFECTIVE 03 NOVEMBER 2022

Location

FAA Identifier: NE69
Lat/Long: 40-52-07.1491N 096-06-31.6600W
40-52.119152N 096-06.527667W
40.8686525,-96.1087944
(estimated)
Elevation: 1182 ft. / 360 m (estimated)
Variation: 06E (1985)
From city: 2 miles E of WEEPING WATER, NE
Time zone: UTC -6 (UTC -5 during Daylight Saving Time)
Zip code: 68463

Airport Operations

Airport use: Private use. Permission required prior to landing
Activation date: 12/1947
Control tower: no
ARTCC: MINNEAPOLIS CENTER
FSS: COLUMBUS FLIGHT SERVICE STATION
Attendance: DAYLIGHT HOURS
Wind indicator: yes
Segmented circle: no

Airport Communications

WX AWOS-3 at PMV (10 nm NE): 118.975 (402-298-7524)
WX AWOS-3PT at AFK (19 nm SE): 128.325 (402-873-7375)
WX AWOS-3 at MLE (20 nm N): 118.25 (402-895-6778)

Nearby radio navigation aids

VOR radial/distance  VOR name  Freq  Var
OVRr215/24.6OMAHA VORTAC116.3008E
LNKr088/28.9LINCOLN VORTAC116.1009E

 
NDB name  Hdg/Dist  Freq  Var  ID
PLATTSMOUTH238/10.032905EPMV .--. -- ...-
NEBRASKA CITY320/19.434705EAFK .- ..-. -.-
WAHOO129/31.440006EAHQ .- .... --.-

Airport Services

Parking: tiedowns
Airframe service: NONE
Powerplant service: NONE
Bottled oxygen: NONE
Bulk oxygen: NONE

Runway Information

Runway 17/35

Dimensions: 2200 x 60 ft. / 671 x 18 m
Surface: turf, in fair condition
RUNWAY 17  RUNWAY 35
Latitude: 40-52.253500N40-51.893333N
Longitude: 096-06.512333W096-06.460000W
Elevation: 1163.0 ft.1139.0 ft.
Traffic pattern: leftleft
Runway heading: 168 magnetic, 174 true348 magnetic, 354 true
Touchdown point: yes, no lightsyes, no lights
Obstructions: none102 ft. trees, 2900 ft. from runway, 28:1 slope to clear

Runway 11/29

Dimensions: 1200 x 50 ft. / 366 x 15 m
Surface: turf, in fair condition
CNTR 15 FT OF RWY IS TURF/GRASS.
RUNWAY 11  RUNWAY 29
Latitude: 40-52.240167N40-52.165833N
Longitude: 096-06.724333W096-06.483167W
Elevation: 1182.0 ft.1159.0 ft.
Traffic pattern: leftleft
Runway heading: 106 magnetic, 112 true286 magnetic, 292 true
Touchdown point: yes, no lightsyes, no lights
Obstructions: 19 ft. other, 50 ft. left of centerline
HANGAR
none

Airport Ownership and Management from official FAA records

Ownership: Privately-owned
Owner: LINCOLN SPORT PARACHUTE CLUB
12617 WEEPING WATER ROAD
WEEPING WATER, NE 68463
Phone 402-267-0154
Manager: LINCOLN SPORT PARACHUTE CLUB
12617 WEEPING WATER ROAD
WEEPING WATER, NE 68463
Phone 402-326-8470
OTHER CTC LARRY BARTLETT 402-440-2992.

Airport Operational Statistics

Aircraft based on the field: 2
Single engine airplanes: 2
    
Aircraft operations: avg 42/week *
91% local general aviation
9% transient general aviation
* for 12-month period ending 27 August 1996

Additional Remarks

FOR CD CTC OMAHA APCH AT 402-682-4395.

Instrument Procedures

There are no published instrument procedures at NE69.

Some nearby airports with instrument procedures:

KPMV - Plattsmouth Municipal Airport/Douglas V Duey Field (10 nm NE)
KOFF - Offutt Air Force Base (18 nm NE)
KAFK - Nebraska City Municipal Airport (19 nm SE)
KMLE - Millard Airport (20 nm N)
KOMA - Eppley Airfield (28 nm N)
 
Loc | Ops | Rwys | IFR | FBO | Links
Com | Nav | Svcs | Stats | Notes
Area around NE69 (Browns Airport)
 
Road maps at: MapQuest Bing Google
 
Aerial photo
WARNING: Photo may not be current or correct
Aerial photo of NE69 (Browns Airport)
Do you have a better or more recent aerial photo of Browns Airport that you would like to share? If so, please send us your photo.

 
Sectional chart

 
Airport distance calculator
Flying to Browns Airport? Find the distance to fly.

From to NE69

Sunrise and sunset
Times for 27-Nov-2022
 Local
(UTC-6)
 Zulu
(UTC)
Morning civil twilight06:5612:56
Sunrise07:2613:26
Sunset16:5822:58
Evening civil twilight17:2823:28

Current date and time
Zulu (UTC)  27-Nov-2022 11:01:20
Local (UTC-6)  27-Nov-2022 05:01:20
 
METAR
KPMV 
10nm NE 
271055Z AUTO 33013G20KT 10SM CLR 02/M01 A2974 RMK AO2 T00151015
KOFF 
17nm NE 
271055Z 32012G18KT 10SM BKN150 BKN190 OVC220 03/M02 A2977 RMK AO2A SLP091 T00251022 PWINO PNO FZRANO TSNO CHINO RWY31 $
KAFK 
19nm SE 
271055Z AUTO 35015G21KT 10SM SCT090 BKN110 02/00 A2972 RMK AO2 T00231002
KMLE 
20nm N 
271035Z AUTO 34010G20KT 320V020 10SM CLR 02/M02 A2977 RMK AO2 T00211017
TAF
KOFF 
17nm NE 
271000Z 2710/2816 33015G25KT 9999 BKN200 QNH2974INS BECMG 2720/2721 33009KT 9999 FEW150 QNH2985INS BECMG 2801/2802 VRB06KT 9999 SKC QNH2977INS TX06/2720Z TNM03/2808Z
NOTAMs
Click for the latest NOTAMs
NOTAMs are issued by the DoD/FAA and will open in a separate window not controlled by AirNav.

 

 
 

Would you like to see your business listed on this page?

 If your business provides an interesting product or service to pilots, flight crews, aircraft, or users of the Browns Airport, you should consider listing it here.  To start the listing process, click on the button below
 
Add a business
 

Other Pages about Browns Airport

Update a link
 
Copyright © AirNav, LLC. All rights reserved. Privacy Policy  Contact